This is the latest recevied weather packets stored in our database for station/object IW0REF-8. If no packets are shown the sender has not sent any weather packets the latest 1 day(s).
| Time | Temp. | Humidity | Pressure | Rain* | Wind** | Luminosity | Snow |
|---|---|---|---|---|---|---|---|
| 1778040886 | 14.44° C | 57% | 1019.6 hPa | - | - | - | - |
| 1778039986 | 13.89° C | 55% | 1019.4 hPa | - | - | - | - |
| 1778039082 | 13.89° C | 65% | 1019.8 hPa | - | - | - | - |
| 1778038182 | 13.33° C | 71% | 1019.9 hPa | - | - | - | - |
| 1778037282 | 13.33° C | 73% | 1020 hPa | - | - | - | - |
| 1778036382 | 13.33° C | 74% | 1020 hPa | - | - | - | - |
| 1778034581 | 13.89° C | 71% | 1020.1 hPa | - | - | - | - |
| 1778033681 | 14.44° C | 68% | 1020.1 hPa | - | - | - | - |
| 1778031881 | 14.44° C | 71% | 1019.8 hPa | - | - | - | - |
| 1778030981 | 13.89° C | 69% | 1019.7 hPa | - | - | - | - |
| 1778030081 | 15° C | 60% | 1019.7 hPa | - | - | - | - |
| 1778029181 | 14.44° C | 60% | 1019.9 hPa | - | - | - | - |
| 1778028281 | 15° C | 59% | 1019.9 hPa | - | - | - | - |
| 1778027381 | 15° C | 60% | 1020.3 hPa | - | - | - | - |
| 1778020180 | 15.56° C | 53% | 1020.6 hPa | - | - | - | - |
| 1778019280 | 15.56° C | 55% | 1021 hPa | - | - | - | - |
| 1778018380 | 15.56° C | 54% | 1021.1 hPa | - | - | - | - |
| 1778017480 | 15.56° C | 53% | 1021 hPa | - | - | - | - |
| 1778013879 | 15° C | 61% | 1021.4 hPa | - | - | - | - |
| 1778011179 | 15° C | 60% | 1021.3 hPa | - | - | - | - |
| 1778009379 | 15° C | 59% | 1021 hPa | - | - | - | - |
* Rain since midnight (hover to see other rain measurements)
** Current wind speed in m/s (hover to see current wind gust speed)